Time;durP1;ratioP1;P1;durP2;ratioP2;P2;SDS_P1;SDS_P2;PMS_P1;PMS_P2;Temp;Humidity;BMP_temperature;BMP_pressure;BME280_temperature;BME280_humidity;BME280_pressure;Samples;Min_cycle;Max_cycle;Signal;HPM_P1;HPM_P2
2024/01/08 00:01:02;;;;;;;5.50;3.40;;;;;;;-13.30;83.98;100235.41;5009673;28;20053;-60
2024/01/08 00:03:34;;;;;;;4.07;3.30;;;;;;;-13.13;83.56;100232.50;5023902;28;20098;-60
2024/01/08 00:06:05;;;;;;;3.97;3.58;;;;;;;-13.00;83.38;100223.38;5013755;28;20056;-61
2024/01/08 00:08:36;;;;;;;3.38;3.08;;;;;;;-12.86;83.18;100222.78;5020472;28;20433;-62
2024/01/08 00:11:07;;;;;;;4.40;3.20;;;;;;;-12.70;82.98;100223.19;5026953;28;20068;-60
2024/01/08 00:13:37;;;;;;;4.35;3.17;;;;;;;-12.61;82.58;100233.91;5026297;28;20122;-59
2024/01/08 00:16:08;;;;;;;3.72;3.10;;;;;;;-12.51;82.27;100224.53;5042692;28;20715;-59
2024/01/08 00:18:40;;;;;;;3.35;2.97;;;;;;;-12.44;81.83;100234.31;5031969;28;20090;-60
2024/01/08 00:21:11;;;;;;;5.97;3.72;;;;;;;-12.58;81.86;100187.09;5023740;28;20057;-60
2024/01/08 00:23:41;;;;;;;6.55;3.13;;;;;;;-12.18;81.50;100232.06;5014546;28;20130;-61
2024/01/08 00:26:12;;;;;;;5.13;2.80;;;;;;;-11.97;81.33;100231.88;5023810;28;20045;-61
2024/01/08 00:28:42;;;;;;;8.05;3.70;;;;;;;-11.79;80.77;100232.28;5013631;28;20057;-62
2024/01/08 00:31:12;;;;;;;4.10;3.00;;;;;;;-11.59;80.35;100231.19;5023768;28;20136;-61
2024/01/08 00:33:44;;;;;;;3.50;2.85;;;;;;;-11.50;79.70;100226.78;5013857;28;20060;-62
2024/01/08 00:36:15;;;;;;;5.03;2.80;;;;;;;-11.25;79.97;100231.03;5023770;28;20049;-62
2024/01/08 00:38:45;;;;;;;4.35;3.00;;;;;;;-10.95;80.20;100229.75;5014459;28;20132;-59
2024/01/08 00:41:16;;;;;;;7.13;3.40;;;;;;;-10.74;79.70;100230.31;5023547;28;20045;-62
2024/01/08 00:43:46;;;;;;;4.10;3.15;;;;;;;-10.71;79.26;100240.59;5013754;28;20051;-61
2024/01/08 00:46:17;;;;;;;3.88;2.97;;;;;;;-10.82;80.21;100226.41;5023535;28;20099;-61
2024/01/08 00:48:49;;;;;;;4.30;2.97;;;;;;;-10.86;80.67;100230.34;5013263;28;20049;-61
2024/01/08 00:51:19;;;;;;;3.28;2.97;;;;;;;-10.86;80.74;100206.00;5023555;28;20041;-61
2024/01/08 00:53:50;;;;;;;4.18;3.10;;;;;;;-10.57;81.29;100218.81;5016591;28;20148;-60
2024/01/08 00:56:20;;;;;;;4.13;2.97;;;;;;;-10.26;81.35;100216.63;5027570;28;20059;-61
2024/01/08 00:58:50;;;;;;;3.90;3.00;;;;;;;-9.99;81.25;100220.06;5017632;28;20057;-64
2024/01/08 01:01:21;;;;;;;4.43;3.10;;;;;;;-9.90;80.11;100222.31;5027512;28;20067;-63
2024/01/08 01:03:53;;;;;;;3.63;3.22;;;;;;;-9.96;79.71;100219.38;5017528;28;20256;-61
2024/01/08 01:06:23;;;;;;;4.85;3.03;;;;;;;-9.85;79.57;100226.03;5027223;28;20049;-60
2024/01/08 01:08:54;;;;;;;3.88;2.88;;;;;;;-9.81;79.13;100217.84;5018101;28;20053;-60
2024/01/08 01:11:24;;;;;;;5.35;3.05;;;;;;;-9.81;78.72;100222.88;5026638;28;20044;-59
2024/01/08 01:13:55;;;;;;;3.38;3.05;;;;;;;-9.77;78.44;100219.78;5017001;28;20380;-61
2024/01/08 01:16:29;;;;;;;6.25;3.20;;;;;;;-9.61;78.24;100222.53;5026886;28;20053;-60
2024/01/08 01:19:01;;;;;;;4.60;3.28;;;;;;;-9.51;78.27;100218.03;5017052;28;20153;-60
2024/01/08 01:21:32;;;;;;;3.90;3.22;;;;;;;-9.50;77.30;100214.72;5017512;28;20053;-60
2024/01/08 01:24:04;;;;;;;4.88;2.90;;;;;;;-9.33;77.32;100214.13;5016739;28;20503;-59
2024/01/08 01:26:35;;;;;;;4.30;3.00;;;;;;;-9.21;76.95;100209.81;5027120;28;20052;-62
2024/01/08 01:29:05;;;;;;;3.53;2.65;;;;;;;-9.17;76.58;100211.72;5016829;28;20045;-61
2024/01/08 01:31:36;;;;;;;8.43;2.92;;;;;;;-9.03;76.08;100215.13;5027141;28;20048;-60
2024/01/08 01:34:10;;;;;;;4.95;2.85;;;;;;;-8.91;75.36;100209.91;5016575;28;20057;-62
2024/01/08 01:36:41;;;;;;;5.43;2.95;;;;;;;-8.82;74.89;100209.59;5016826;28;20049;-60
2024/01/08 01:39:11;;;;;;;4.00;2.90;;;;;;;-8.88;73.74;100209.22;5026391;28;20147;-61
2024/01/08 01:41:41;;;;;;;4.35;3.10;;;;;;;-8.99;73.55;100200.97;5017061;28;20053;-58
2024/01/08 01:44:12;;;;;;;4.78;2.90;;;;;;;-9.06;73.63;100199.75;5026398;28;20049;-62
2024/01/08 01:46:45;;;;;;;4.30;2.83;;;;;;;-9.31;74.25;100131.56;5015931;28;20049;-60
2024/01/08 01:49:19;;;;;;;3.88;2.83;;;;;;;-8.95;73.71;100197.84;5026161;28;20049;-61
2024/01/08 01:51:51;;;;;;;6.68;2.67;;;;;;;-8.92;74.70;100182.84;5002746;28;20099;-61
2024/01/08 01:54:24;;;;;;;7.45;2.95;;;;;;;-8.74;73.59;100194.06;5026139;28;20102;-61
2024/01/08 01:57:00;;;;;;;4.15;2.88;;;;;;;-8.78;72.85;100197.22;5015562;28;20095;-61
2024/01/08 01:59:31;;;;;;;3.53;2.75;;;;;;;-8.77;72.18;100193.88;5030056;28;20052;-60
2024/01/08 02:02:04;;;;;;;2.75;2.35;;;;;;;-8.72;71.71;100197.56;5023875;28;20578;-61
2024/01/08 02:04:37;;;;;;;4.45;2.70;;;;;;;-8.75;71.02;100194.84;5034211;28;20056;-59
2024/01/08 02:07:08;;;;;;;3.13;2.40;;;;;;;-8.83;71.07;100193.53;5009804;28;20053;-59
2024/01/08 02:09:39;;;;;;;3.55;2.80;;;;;;;-8.84;71.21;100194.28;5022519;28;20040;-59
2024/01/08 02:12:11;;;;;;;5.57;3.90;;;;;;;-8.86;70.76;100188.28;5035114;28;20040;-59
2024/01/08 02:14:42;;;;;;;5.75;3.95;;;;;;;-8.87;70.34;100189.06;5021486;28;20136;-60
2024/01/08 02:17:12;;;;;;;4.43;3.42;;;;;;;-9.00;69.83;100181.53;5030631;28;20056;-60
2024/01/08 02:19:44;;;;;;;6.13;3.28;;;;;;;-9.16;69.93;100183.13;5023533;28;20060;-60
2024/01/08 02:22:15;;;;;;;4.15;2.83;;;;;;;-9.19;69.89;100182.91;5031166;28;20618;-60
2024/01/08 02:24:47;;;;;;;5.40;2.85;;;;;;;-9.24;69.98;100186.81;5023452;28;20590;-59
2024/01/08 02:27:17;;;;;;;4.32;2.63;;;;;;;-9.12;70.61;100179.97;5034341;28;20087;-59
2024/01/08 02:29:47;;;;;;;5.85;3.05;;;;;;;-9.02;70.40;100175.47;5025306;28;20129;-60
2024/01/08 02:32:18;;;;;;;3.47;2.40;;;;;;;-8.99;70.04;100166.41;5033969;28;20063;-59
2024/01/08 02:34:49;;;;;;;4.22;2.90;;;;;;;-8.99;70.37;100165.53;5022962;28;20052;-62
2024/01/08 02:37:19;;;;;;;3.67;2.55;;;;;;;-8.96;70.63;100165.72;5034353;28;20048;-60
2024/01/08 02:39:51;;;;;;;6.97;3.00;;;;;;;-8.89;70.40;100172.88;5024446;28;20629;-60
2024/01/08 02:42:22;;;;;;;3.33;2.55;;;;;;;-8.74;70.28;100163.66;5033672;28;20053;-59
2024/01/08 02:44:52;;;;;;;3.15;2.70;;;;;;;-8.76;69.29;100155.13;5023079;28;20103;-61
2024/01/08 02:47:22;;;;;;;3.40;2.58;;;;;;;-8.77;69.46;100157.56;5033841;28;20052;-60
2024/01/08 02:49:53;;;;;;;4.20;2.38;;;;;;;-8.66;69.27;100158.16;5017318;28;20568;-60
2024/01/08 02:52:23;;;;;;;3.30;2.88;;;;;;;-8.52;69.30;100150.59;5034229;28;20055;-60
2024/01/08 02:54:55;;;;;;;5.13;2.80;;;;;;;-8.46;68.47;100150.09;5023775;28;20052;-60
2024/01/08 02:57:28;;;;;;;3.53;2.50;;;;;;;-8.55;68.08;100149.56;5029903;28;20072;-60
2024/01/08 02:59:58;;;;;;;5.03;2.78;;;;;;;-8.65;68.10;100137.16;5014895;28;20140;-59
2024/01/08 03:02:29;;;;;;;3.03;2.55;;;;;;;-8.63;68.09;100140.66;5024725;28;20044;-61
2024/01/08 03:05:00;;;;;;;3.45;2.80;;;;;;;-8.63;68.37;100135.59;5014705;28;20053;-61
2024/01/08 03:07:30;;;;;;;3.88;2.72;;;;;;;-8.52;68.18;100132.84;5024458;28;20712;-59
2024/01/08 03:10:03;;;;;;;3.78;2.70;;;;;;;-8.36;68.26;100127.00;5016853;28;20107;-58
2024/01/08 03:12:33;;;;;;;5.05;2.67;;;;;;;-8.45;66.38;100121.41;5032542;28;20135;-59
2024/01/08 03:15:03;;;;;;;3.67;2.53;;;;;;;-8.49;66.69;100114.41;5024564;28;20579;-61
2024/01/08 03:17:35;;;;;;;3.78;2.90;;;;;;;-8.45;66.14;100118.03;5034599;28;20076;-61
2024/01/08 03:20:08;;;;;;;4.45;2.72;;;;;;;-8.44;65.59;100115.56;5017043;28;20052;-60
2024/01/08 03:22:39;;;;;;;2.42;2.22;;;;;;;-8.32;65.48;100108.63;5013912;28;20045;-59
2024/01/08 03:25:11;;;;;;;4.60;2.70;;;;;;;-8.06;65.48;100104.13;5023760;28;20049;-58
2024/01/08 03:27:42;;;;;;;4.30;2.53;;;;;;;-7.93;64.75;100104.00;5014211;28;20075;-59
2024/01/08 03:30:13;;;;;;;3.00;2.45;;;;;;;-7.69;64.21;100095.97;5023844;28;20072;-61
2024/01/08 03:32:43;;;;;;;3.42;2.53;;;;;;;-7.68;63.23;100095.19;5014363;28;20049;-57
2024/01/08 03:35:14;;;;;;;4.13;2.50;;;;;;;-7.86;62.87;100039.28;5024242;28;20056;-58
2024/01/08 03:37:45;;;;;;;4.07;2.92;;;;;;;-7.34;62.22;100096.97;5014808;28;20056;-60
2024/01/08 03:40:17;;;;;;;3.47;2.50;;;;;;;-7.11;61.98;100096.50;5043872;28;20076;-58
2024/01/08 03:42:48;;;;;;;2.67;2.10;;;;;;;-6.84;60.69;100097.03;5008228;28;20453;-57
2024/01/08 03:45:18;;;;;;;2.95;2.45;;;;;;;-6.69;60.14;100091.81;5045982;28;20076;-57
2024/01/08 03:47:48;;;;;;;3.22;2.45;;;;;;;-6.58;59.90;100095.78;5035060;28;20486;-60
2024/01/08 03:50:19;;;;;;;3.63;2.63;;;;;;;-6.64;59.11;100090.41;5045531;28;20388;-58
2024/01/08 03:52:50;;;;;;;3.58;2.60;;;;;;;-6.62;58.16;100098.94;5052873;28;20052;-59
2024/01/08 03:55:22;;;;;;;4.00;2.50;;;;;;;-6.66;58.13;100084.38;5063304;28;20059;-61
2024/01/08 03:57:53;;;;;;;4.45;2.80;;;;;;;-6.71;57.13;100088.34;5052483;28;20079;-59
2024/01/08 04:00:24;;;;;;;5.15;3.08;;;;;;;-7.18;57.86;100096.97;5063081;28;20043;-59
2024/01/08 04:02:54;;;;;;;4.00;2.70;;;;;;;-7.21;58.64;100094.28;5052955;28;20109;-59
2024/01/08 04:05:25;;;;;;;4.40;2.63;;;;;;;-6.95;59.68;100083.78;5062943;28;20678;-59
2024/01/08 04:07:56;;;;;;;5.00;2.80;;;;;;;-6.43;62.14;100084.63;5048184;28;20944;-59
2024/01/08 04:10:28;;;;;;;5.00;3.10;;;;;;;-6.39;60.22;100082.31;5043406;28;20049;-59
2024/01/08 04:12:59;;;;;;;5.05;2.90;;;;;;;-6.38;59.19;100088.25;5030995;28;20070;-59
2024/01/08 04:15:29;;;;;;;5.32;2.83;;;;;;;-6.43;58.26;100085.50;5043263;28;20040;-58
2024/01/08 04:17:59;;;;;;;5.32;2.90;;;;;;;-6.51;58.18;100087.66;5033411;28;20068;-59
2024/01/08 04:20:30;;;;;;;4.05;2.70;;;;;;;-6.54;57.81;100092.59;5043560;28;20488;-58
2024/01/08 04:23:01;;;;;;;4.63;2.30;;;;;;;-6.55;57.52;100078.13;5033387;28;20072;-58
2024/01/08 04:25:33;;;;;;;5.03;2.70;;;;;;;-6.55;57.59;100085.75;5043911;28;20480;-58
2024/01/08 04:28:03;;;;;;;3.80;2.83;;;;;;;-6.60;57.60;100077.03;5024277;28;20160;-58
2024/01/08 04:30:58;;;;;;;3.50;2.67;;;;;;;-6.76;57.79;100084.72;5026649;28;20079;-57
2024/01/08 04:33:28;;;;;;;6.43;2.78;;;;;;;-6.92;58.44;100083.06;5025262;28;21341;-59
2024/01/08 04:35:59;;;;;;;4.05;2.88;;;;;;;-7.22;58.49;100082.38;5020504;28;20068;-58
2024/01/08 04:38:29;;;;;;;6.18;2.88;;;;;;;-7.31;59.36;100076.81;5052507;28;20048;-60
2024/01/08 04:41:01;;;;;;;3.20;2.58;;;;;;;-7.15;59.70;100079.34;5041448;28;20135;-60
2024/01/08 04:43:32;;;;;;;5.60;2.75;;;;;;;-6.96;59.29;100076.97;5051608;28;20052;-59
2024/01/08 04:46:03;;;;;;;3.83;3.00;;;;;;;-6.86;59.08;100077.41;5018470;28;20108;-59
2024/01/08 04:48:34;;;;;;;4.65;2.60;;;;;;;-6.97;58.82;100080.28;5023135;28;20061;-60
2024/01/08 04:51:04;;;;;;;6.32;3.08;;;;;;;-7.04;58.67;100090.94;5021066;28;20048;-60
2024/01/08 04:53:35;;;;;;;5.57;2.92;;;;;;;-7.09;58.82;100074.56;5028740;28;20053;-60
2024/01/08 04:56:08;;;;;;;5.15;3.20;;;;;;;-7.42;59.22;100033.13;5011187;28;20511;-61
2024/01/08 04:58:38;;;;;;;4.82;2.70;;;;;;;-7.11;59.54;100096.50;5011267;28;20514;-58
2024/01/08 05:01:09;;;;;;;4.32;2.83;;;;;;;-7.29;60.08;100096.41;5020201;28;20127;-59
2024/01/08 05:03:39;;;;;;;5.78;3.08;;;;;;;-7.56;60.58;100093.31;5011916;28;20044;-60
2024/01/08 05:06:09;;;;;;;4.65;2.90;;;;;;;-7.55;61.17;100097.59;5022534;28;20060;-60
2024/01/08 05:08:40;;;;;;;4.68;3.10;;;;;;;-7.69;61.65;100090.91;5012228;28;20060;-61
2024/01/08 05:11:13;;;;;;;4.15;2.88;;;;;;;-7.70;62.37;100081.56;5021662;28;20106;-60
2024/01/08 05:13:43;;;;;;;4.57;2.72;;;;;;;-7.62;62.55;100096.38;5009967;28;20052;-61
2024/01/08 05:16:14;;;;;;;5.20;3.33;;;;;;;-7.62;62.87;100098.03;5018938;28;20081;-61
2024/01/08 05:18:44;;;;;;;6.43;3.58;;;;;;;-7.59;63.07;100100.75;5011331;28;20466;-61
2024/01/08 05:21:16;;;;;;;7.65;3.78;;;;;;;-7.51;63.45;100096.97;5022100;28;20056;-61
2024/01/08 05:23:46;;;;;;;11.43;6.00;;;;;;;-7.43;64.06;100107.53;5011244;28;20127;-61
2024/01/08 05:26:22;;;;;;;33.78;14.77;;;;;;;-7.30;64.30;100114.13;5021556;28;20622;-59
2024/01/08 05:28:52;;;;;;;17.15;7.78;;;;;;;-7.20;64.70;100111.25;5011594;28;20118;-59
2024/01/08 05:31:23;;;;;;;10.27;5.22;;;;;;;-7.14;65.29;100111.56;5021716;28;20049;-60
2024/01/08 05:33:54;;;;;;;18.52;9.65;;;;;;;-7.08;65.42;100116.97;5011676;28;20098;-60
2024/01/08 05:36:24;;;;;;;13.60;7.10;;;;;;;-7.02;65.52;100117.28;5022099;28;20088;-58
2024/01/08 05:38:54;;;;;;;6.93;4.43;;;;;;;-7.10;65.76;100113.47;5012021;28;20067;-60
2024/01/08 05:41:26;;;;;;;6.05;3.80;;;;;;;-7.13;66.53;100123.47;5022704;28;20061;-61
2024/01/08 05:43:57;;;;;;;7.25;3.75;;;;;;;-7.18;66.96;100122.38;5011851;28;20145;-59
2024/01/08 05:46:27;;;;;;;8.02;4.28;;;;;;;-7.28;67.76;100112.53;5021931;28;20827;-60
2024/01/08 05:48:58;;;;;;;6.70;3.88;;;;;;;-7.38;68.42;100122.19;5011523;28;20049;-60
2024/01/08 05:51:29;;;;;;;5.60;3.60;;;;;;;-7.46;69.22;100123.47;5021689;28;20075;-61
2024/01/08 05:54:00;;;;;;;7.55;3.90;;;;;;;-7.58;69.51;100130.41;5011619;28;20378;-60
2024/01/08 05:56:32;;;;;;;5.10;3.40;;;;;;;-7.66;70.08;100139.25;5021265;28;20800;-59
2024/01/08 05:59:03;;;;;;;8.05;3.72;;;;;;;-7.69;70.49;100139.09;5011206;28;20520;-60
2024/01/08 06:01:33;;;;;;;6.60;4.10;;;;;;;-7.74;70.65;100140.50;5021619;28;20148;-60
2024/01/08 06:04:04;;;;;;;5.97;3.78;;;;;;;-7.73;71.10;100137.22;5011157;28;20055;-61
2024/01/08 06:06:34;;;;;;;7.45;4.03;;;;;;;-7.78;71.27;100143.69;5021968;28;20080;-60
2024/01/08 06:09:06;;;;;;;7.00;3.70;;;;;;;-7.89;71.31;100126.19;5011592;28;20057;-61
2024/01/08 06:11:38;;;;;;;6.28;3.63;;;;;;;-7.96;71.12;100138.47;5018156;28;20057;-60
2024/01/08 06:14:08;;;;;;;7.25;4.25;;;;;;;-8.09;71.46;100126.75;5020534;28;20060;-60
2024/01/08 06:16:39;;;;;;;6.80;3.35;;;;;;;-8.13;71.87;100135.00;5009855;28;20056;-59
2024/01/08 06:19:09;;;;;;;8.68;4.70;;;;;;;-8.27;72.06;100132.56;5020622;28;20044;-60
2024/01/08 06:21:40;;;;;;;10.15;5.47;;;;;;;-8.38;72.06;100138.69;5009245;28;20061;-59
2024/01/08 06:24:11;;;;;;;13.20;5.88;;;;;;;-8.50;72.18;100138.03;5020734;28;20067;-59
2024/01/08 06:26:43;;;;;;;14.05;7.80;;;;;;;-8.54;72.56;100146.22;5010808;28;20869;-60
2024/01/08 06:29:13;;;;;;;11.05;5.95;;;;;;;-8.65;72.77;100142.22;5029058;28;20076;-59
2024/01/08 06:31:44;;;;;;;10.82;6.20;;;;;;;-8.71;73.56;100133.47;5019875;28;20078;-58
2024/01/08 06:34:14;;;;;;;10.55;5.60;;;;;;;-8.66;74.21;100135.38;5029958;28;20060;-60
2024/01/08 06:36:45;;;;;;;8.15;4.75;;;;;;;-8.55;75.08;100134.34;5018958;28;20048;-60
2024/01/08 06:39:15;;;;;;;7.30;4.55;;;;;;;-8.52;75.30;100126.91;5028424;28;20138;-61
2024/01/08 06:41:47;;;;;;;8.02;4.35;;;;;;;-8.60;74.96;100126.47;5000606;28;20056;-60
2024/01/08 06:44:18;;;;;;;25.00;11.32;;;;;;;-8.94;74.60;100119.44;5027857;28;20086;-61
2024/01/08 06:46:48;;;;;;;8.07;5.50;;;;;;;-9.19;74.78;100139.91;5017184;28;20060;-60
2024/01/08 06:49:18;;;;;;;8.82;5.18;;;;;;;-9.63;74.96;100135.56;5028897;28;20114;-60
2024/01/08 06:51:49;;;;;;;9.52;5.15;;;;;;;-9.82;75.62;100148.69;5019466;28;20127;-60
2024/01/08 06:54:20;;;;;;;10.48;5.07;;;;;;;-9.98;75.76;100146.00;5027502;28;20751;-61
2024/01/08 06:56:52;;;;;;;16.13;6.97;;;;;;;-10.20;75.80;100147.16;5018816;28;20060;-60
2024/01/08 06:59:22;;;;;;;12.20;6.30;;;;;;;-10.31;75.78;100154.84;5028556;28;20088;-61
2024/01/08 07:01:53;;;;;;;12.57;6.53;;;;;;;-10.49;76.38;100152.88;5019004;28;21439;-59
2024/01/08 07:04:23;;;;;;;13.35;5.38;;;;;;;-10.72;76.92;100148.84;5029431;28;20049;-60
2024/01/08 07:06:54;;;;;;;15.63;6.57;;;;;;;-10.88;77.96;100162.13;5020295;28;20056;-59
2024/01/08 07:09:24;;;;;;;11.50;6.32;;;;;;;-10.92;78.28;100160.16;5029923;28;20506;-61
2024/01/08 07:11:57;;;;;;;13.18;6.70;;;;;;;-10.95;78.80;100149.84;5019901;28;20056;-60
2024/01/08 07:14:27;;;;;;;20.60;9.55;;;;;;;-10.96;79.23;100153.13;5030081;28;20098;-61
2024/01/08 07:16:57;;;;;;;14.15;6.80;;;;;;;-11.01;79.67;100159.53;5019552;28;20061;-60
2024/01/08 07:19:28;;;;;;;38.40;18.02;;;;;;;-11.03;80.49;100155.13;5030011;28;20072;-61
2024/01/08 07:21:58;;;;;;;90.13;35.78;;;;;;;-11.10;80.68;100158.91;5018849;28;20127;-60
2024/01/08 07:24:29;;;;;;;49.85;23.52;;;;;;;-11.21;80.42;100162.34;5028128;28;20052;-62
2024/01/08 07:27:02;;;;;;;38.88;20.15;;;;;;;-11.34;80.42;100158.97;5020041;28;20148;-60
2024/01/08 07:29:32;;;;;;;33.28;15.68;;;;;;;-11.50;80.65;100163.75;5039848;28;20056;-59
2024/01/08 07:32:03;;;;;;;18.48;9.30;;;;;;;-11.63;80.81;100163.66;5017480;28;20060;-61
2024/01/08 07:34:33;;;;;;;17.88;9.57;;;;;;;-11.86;80.90;100155.34;5030084;28;20095;-60
2024/01/08 07:37:03;;;;;;;17.80;8.63;;;;;;;-12.11;81.19;100167.03;5025988;28;20756;-62
2024/01/08 07:39:34;;;;;;;15.30;8.93;;;;;;;-12.24;82.00;100161.09;5027768;28;20044;-61
2024/01/08 07:42:08;;;;;;;10.63;6.63;;;;;;;-12.28;82.14;100159.16;5031296;28;20067;-63
2024/01/08 07:44:39;;;;;;;10.20;5.47;;;;;;;-12.30;82.62;100165.72;5030751;28;20075;-61
2024/01/08 07:47:09;;;;;;;17.35;6.78;;;;;;;-12.60;82.03;100139.19;5040375;28;20048;-62
2024/01/08 07:49:39;;;;;;;10.70;7.00;;;;;;;-12.58;81.66;100172.00;5029365;28;20060;-61
2024/01/08 07:52:10;;;;;;;12.45;7.20;;;;;;;-12.72;81.69;100169.34;5039426;28;20068;-63
2024/01/08 07:54:40;;;;;;;10.85;6.00;;;;;;;-12.82;81.87;100171.94;5029878;28;20135;-60
2024/01/08 07:57:12;;;;;;;8.45;5.13;;;;;;;-12.86;82.22;100175.00;5039751;28;20538;-64
2024/01/08 07:59:43;;;;;;;9.48;5.50;;;;;;;-12.92;82.48;100169.53;5029714;28;20058;-65
2024/01/08 08:02:13;;;;;;;35.75;14.80;;;;;;;-13.33;82.66;100134.59;5039310;28;20048;-62
2024/01/08 08:04:44;;;;;;;13.73;6.30;;;;;;;-13.18;82.64;100186.00;5030379;28;20056;-63
2024/01/08 08:07:14;;;;;;;9.88;4.50;;;;;;;-13.28;82.75;100176.94;5039056;28;20144;-62
2024/01/08 08:09:45;;;;;;;10.88;5.57;;;;;;;-13.34;84.10;100183.13;5030024;28;20638;-61
2024/01/08 08:12:17;;;;;;;13.20;6.82;;;;;;;-13.23;85.12;100181.41;5039675;28;20739;-62
2024/01/08 08:14:48;;;;;;;15.40;7.18;;;;;;;-12.98;86.13;100179.09;5028491;28;20105;-61
2024/01/08 08:17:19;;;;;;;8.70;4.85;;;;;;;-12.90;86.12;100193.13;5040050;28;20106;-61
2024/01/08 08:19:49;;;;;;;7.93;5.07;;;;;;;-12.82;86.17;100197.97;5028343;28;20043;-62
2024/01/08 08:22:20;;;;;;;9.10;7.07;;;;;;;-12.75;86.33;100209.41;5039720;28;20064;-61
2024/01/08 08:24:50;;;;;;;8.55;5.32;;;;;;;-12.70;86.27;100198.03;5028225;28;20052;-60
2024/01/08 08:27:23;;;;;;;8.43;4.82;;;;;;;-12.70;86.04;100197.13;5039954;28;20052;-63
2024/01/08 08:29:54;;;;;;;6.30;4.60;;;;;;;-12.78;86.11;100178.94;5029264;28;20066;-61
2024/01/08 08:32:24;;;;;;;6.47;4.80;;;;;;;-12.66;86.24;100189.91;5039224;28;20453;-63
2024/01/08 08:34:55;;;;;;;7.43;4.10;;;;;;;-12.52;86.45;100197.63;5028384;28;20084;-61
2024/01/08 08:37:26;;;;;;;10.32;5.28;;;;;;;-12.34;86.72;100198.97;5039051;28;20056;-62
2024/01/08 08:40:16;;;;;;;12.13;7.63;;;;;;;-11.93;87.60;100206.13;5028791;28;20059;-62
2024/01/08 08:42:48;;;;;;;14.02;8.05;;;;;;;-11.68;87.60;100205.31;5029334;28;20051;-60
2024/01/08 08:45:19;;;;;;;9.68;6.60;;;;;;;-11.67;86.49;100207.06;5038540;28;20089;-60
2024/01/08 08:47:50;;;;;;;14.98;7.22;;;;;;;-11.62;86.31;100215.84;5028982;28;20563;-61
2024/01/08 08:50:21;;;;;;;26.25;11.27;;;;;;;-11.45;85.85;100220.44;5039395;28;20083;-61
2024/01/08 08:52:51;;;;;;;59.97;20.77;;;;;;;-11.42;85.53;100219.75;5028925;28;20167;-61
2024/01/08 08:55:22;;;;;;;66.25;21.70;;;;;;;-11.51;84.48;100214.94;5039023;28;20061;-62
2024/01/08 08:57:54;;;;;;;32.95;12.90;;;;;;;-11.66;84.09;100213.84;5028415;28;20047;-63
2024/01/08 09:00:24;;;;;;;26.95;11.95;;;;;;;-11.75;84.11;100226.69;5039448;28;20098;-61
2024/01/08 09:02:56;;;;;;;33.97;16.05;;;;;;;-11.72;84.45;100229.44;5029646;28;20048;-64
2024/01/08 09:05:27;;;;;;;19.27;9.40;;;;;;;-11.70;84.72;100212.78;5038996;28;20083;-62
2024/01/08 09:08:08;;;;;;;9.00;5.28;;;;;;;-11.57;85.33;100219.56;5027201;28;20059;-61
2024/01/08 09:10:39;;;;;;;9.52;4.88;;;;;;;-11.63;84.79;100209.03;5028175;28;20109;-63
2024/01/08 09:13:12;;;;;;;9.50;4.90;;;;;;;-11.60;85.23;100216.84;5038410;28;20144;-62
2024/01/08 09:15:42;;;;;;;6.38;4.10;;;;;;;-11.67;85.16;100209.59;5032411;28;20136;-61
2024/01/08 09:18:12;;;;;;;7.35;4.40;;;;;;;-11.77;85.54;100211.47;5043258;28;20056;-62
2024/01/08 09:20:43;;;;;;;6.78;3.95;;;;;;;-11.79;85.89;100212.13;5032584;28;20400;-61
2024/01/08 09:23:14;;;;;;;7.25;4.63;;;;;;;-11.81;86.13;100213.66;5042465;28;20056;-64
2024/01/08 09:25:44;;;;;;;12.93;6.50;;;;;;;-11.76;86.91;100208.16;5032446;28;20044;-62
2024/01/08 09:28:16;;;;;;;15.48;8.13;;;;;;;-11.77;87.07;100188.78;5041726;28;20076;-63
2024/01/08 09:30:47;;;;;;;12.50;7.00;;;;;;;-11.62;87.25;100200.72;5032095;28;20044;-63
2024/01/08 09:33:18;;;;;;;15.98;7.97;;;;;;;-11.63;87.18;100209.03;5041825;28;20052;-61
2024/01/08 09:35:49;;;;;;;23.40;9.93;;;;;;;-11.61;87.63;100204.97;5032555;28;20056;-61
2024/01/08 09:38:19;;;;;;;30.77;13.07;;;;;;;-11.59;87.82;100211.88;5042379;28;20048;-63
2024/01/08 09:40:50;;;;;;;27.20;11.15;;;;;;;-11.56;87.96;100208.69;5032225;28;20127;-63
2024/01/08 09:43:27;;;;;;;25.77;10.68;;;;;;;-11.52;88.08;100203.13;5041994;28;20083;-63
2024/01/08 09:46:06;;;;;;;21.88;11.02;;;;;;;-11.45;88.26;100205.28;5031555;28;20267;-62
2024/01/08 09:48:37;;;;;;;8.15;5.38;;;;;;;-11.38;88.84;100217.56;5039335;28;20063;-61
2024/01/08 09:51:09;;;;;;;9.15;5.30;;;;;;;-11.34;88.67;100214.47;5041184;28;20056;-62
2024/01/08 09:53:39;;;;;;;13.15;7.25;;;;;;;-11.29;88.47;100217.31;5032360;28;20140;-60
2024/01/08 09:56:12;;;;;;;9.27;5.93;;;;;;;-11.22;88.45;100216.09;5041545;28;20118;-61
2024/01/08 09:58:45;;;;;;;7.95;5.40;;;;;;;-11.18;88.40;100210.47;5031680;28;20933;-61
2024/01/08 10:01:16;;;;;;;8.32;5.45;;;;;;;-11.16;88.44;100206.41;5041825;28;20086;-63
2024/01/08 10:03:48;;;;;;;11.25;5.43;;;;;;;-11.30;87.47;100201.31;5031221;28;20480;-62
2024/01/08 10:06:18;;;;;;;13.02;6.38;;;;;;;-11.45;87.36;100207.81;5041858;28;20076;-63
2024/01/08 10:08:49;;;;;;;12.70;6.57;;;;;;;-11.46;87.52;100203.53;5031667;28;20131;-63
2024/01/08 10:11:20;;;;;;;12.02;6.90;;;;;;;-11.37;87.90;100209.22;5040637;28;20127;-61
2024/01/08 10:13:52;;;;;;;59.03;25.27;;;;;;;-11.33;87.88;100221.28;5031659;28;20512;-61
2024/01/08 10:16:23;;;;;;;33.28;10.40;;;;;;;-11.50;87.49;100221.75;5041901;28;20055;-62
2024/01/08 10:19:02;;;;;;;25.65;9.25;;;;;;;-11.64;87.29;100227.47;5030670;28;20052;-63
2024/01/08 10:21:33;;;;;;;19.92;7.50;;;;;;;-11.60;87.73;100234.47;5041102;28;20056;-62
2024/01/08 10:24:10;;;;;;;12.68;5.47;;;;;;;-11.71;87.23;100241.25;5030148;28;20148;-61
2024/01/08 10:26:41;;;;;;;7.43;4.68;;;;;;;-11.74;87.08;100241.91;5030255;28;20075;-62
2024/01/08 10:29:15;;;;;;;8.73;4.80;;;;;;;-11.75;87.02;100237.66;5040787;28;20057;-60
2024/01/08 10:31:46;;;;;;;7.00;4.32;;;;;;;-11.66;87.18;100236.53;5030227;28;20057;-62
2024/01/08 10:34:17;;;;;;;7.53;4.80;;;;;;;-11.85;86.29;100237.78;5040407;28;20056;-61
2024/01/08 10:36:49;;;;;;;10.75;4.78;;;;;;;-11.91;86.54;100239.84;5030431;28;20078;-61
2024/01/08 10:39:20;;;;;;;5.70;4.00;;;;;;;-11.93;86.53;100238.88;5040640;28;20555;-61
2024/01/08 10:42:02;;;;;;;7.05;4.28;;;;;;;-11.85;86.74;100240.28;5030404;28;20064;-63
2024/01/08 10:44:34;;;;;;;6.85;5.05;;;;;;;-11.82;86.35;100247.19;5040042;28;20151;-61
2024/01/08 10:47:08;;;;;;;9.10;4.70;;;;;;;-11.82;86.43;100245.53;5030001;28;20052;-60
2024/01/08 10:49:45;;;;;;;7.78;4.88;;;;;;;-11.78;86.58;100256.69;5029647;28;20139;-63
2024/01/08 10:52:26;;;;;;;5.80;4.10;;;;;;;-11.99;86.19;100225.84;5040273;28;20068;-63
2024/01/08 10:54:58;;;;;;;5.95;4.28;;;;;;;-11.83;86.84;100251.34;5030401;28;20057;-62
2024/01/08 10:57:37;;;;;;;7.22;4.55;;;;;;;-11.91;86.92;100232.31;5039694;28;20075;-61
2024/01/08 11:00:10;;;;;;;10.40;4.22;;;;;;;-12.28;86.65;100181.81;5030058;28;20180;-60
2024/01/08 11:02:42;;;;;;;9.02;4.57;;;;;;;-11.76;87.55;100258.56;5029313;28;20048;-63
2024/01/08 11:05:13;;;;;;;7.45;4.43;;;;;;;-11.67;87.87;100260.00;5039957;28;20059;-60
2024/01/08 11:07:45;;;;;;;9.23;5.35;;;;;;;-11.59;88.02;100266.47;5029330;28;20140;-63
2024/01/08 11:10:17;;;;;;;10.77;5.35;;;;;;;-11.56;87.84;100251.56;5039699;28;20138;-62
2024/01/08 11:12:54;;;;;;;8.82;4.60;;;;;;;-11.61;87.54;100252.88;5029553;28;20092;-61
2024/01/08 11:15:28;;;;;;;10.95;5.30;;;;;;;-11.59;87.56;100256.38;5039883;28;20392;-63
2024/01/08 11:18:01;;;;;;;8.23;4.88;;;;;;;-11.47;87.90;100251.34;5030114;28;20201;-63
2024/01/08 11:20:46;;;;;;;6.38;4.28;;;;;;;-11.61;87.32;100250.34;5040171;28;20137;-60
2024/01/08 11:23:39;;;;;;;6.50;4.35;;;;;;;-11.65;87.48;100249.28;5030352;28;20067;-61
2024/01/08 11:26:11;;;;;;;7.30;4.65;;;;;;;-11.66;87.29;100244.09;5030518;28;20055;-62
2024/01/08 11:28:43;;;;;;;8.82;4.47;;;;;;;-11.60;87.17;100244.56;5028971;28;20079;-62
2024/01/08 11:31:54;;;;;;;10.52;5.00;;;;;;;-11.66;87.15;100244.09;5039411;28;20167;-63
2024/01/08 11:34:55;;;;;;;15.63;6.13;;;;;;;-11.64;86.99;100247.63;5039698;28;20146;-60
2024/01/08 11:37:34;;;;;;;36.08;10.70;;;;;;;-11.72;87.16;100255.50;5039189;28;20055;-61
2024/01/08 11:40:12;;;;;;;15.95;6.18;;;;;;;-11.76;87.64;100258.56;5029375;28;20113;-62